Latest Weather Observations for Batchelor

IDD60801

Issued at 6:31 pm CST Tuesday 25 July 2017 (issued every 30 minutes, with the page automatically refreshed every 10 minutes)

About weather observations | Map of weather stations | Latest weather observations for NT | Other Formats
Station Details ID: 014272 Name: BATCHELOR AIRPORT Lat: -13.05 Lon: 131.03 Height: 104.0 m
Data from the previous 72 hours. | See also: Recent months at Batchelor
Date/Time
CST
Temp
°C
App
Temp
°C
Dew
Point
°C
Rel
Hum
%
Delta-T
°C
Wind Press
QNH
hPa
Press
MSL
hPa
Rain since
9am
mm
Dir  Spd
km/h
Gust
km/h
Spd
kts
Gust
kts
25/06:30pm 30.4 30.4 14.1 37 9.9 ESE 7 11 4 6 1011.3 1010.8 0.0
25/06:00pm 32.0 31.8 13.7 33 11.1 ESE 7 11 4 6 1011.1 1010.6 0.0
25/05:30pm 32.7 31.3 13.4 31 11.7 ENE 13 20 7 11 1011.0 1010.5 0.0
25/05:00pm 33.6 31.9 13.6 29 12.2 E 15 22 8 12 1010.9 1010.4 0.0
25/04:30pm 33.6 31.1 13.6 29 12.2 E 19 30 10 16 1010.8 1010.3 0.0
25/04:00pm 33.7 31.9 13.2 29 12.4 ENE 15 22 8 12 1010.8 1010.3 0.0
25/03:30pm 33.8 31.3 12.2 27 12.9 ENE 17 24 9 13 1010.8 1010.3 0.0
25/03:00pm 34.1 31.6 12.4 26 13.0 ENE 17 24 9 13 1010.8 1010.3 0.0
25/02:30pm 33.4 30.5 12.9 28 12.4 ESE 20 30 11 16 1011.1 1010.6 0.0
25/02:00pm 33.6 31.3 13.1 29 12.4 E 17 30 9 16 1011.7 1011.3 0.0
25/01:30pm 32.5 29.0 12.2 29 12.1 E 22 32 12 17 1012.1 1011.7 0.0
25/01:00pm 32.5 29.4 12.2 29 12.1 E 20 32 11 17 1012.6 1012.2 0.0
25/12:30pm 31.8 27.1 12.1 30 11.7 ESE 28 37 15 20 1013.2 1012.7 0.0
25/12:00pm 31.6 27.9 11.4 29 11.8 E 22 37 12 20 1013.8 1013.3 0.0
25/11:30am 31.0 27.3 11.4 30 11.4 E 22 37 12 20 1014.3 1013.8 0.0
25/11:00am 30.1 25.5 11.1 31 11.0 E 26 35 14 19 1014.6 1014.1 0.0
25/10:30am 28.8 26.0 10.0 31 10.6 ESE 15 24 8 13 1014.9 1014.4 0.0
25/10:00am 27.4 25.3 9.7 33 9.9 ESE 11 17 6 9 1015.1 1014.6 0.0
25/09:30am 25.9 24.6 9.3 35 9.1 E 6 9 3 5 1015.2 1014.7 0.0
25/09:00am 24.9 23.4 9.2 37 8.6 E 7 11 4 6 1015.2 1014.7 0.0
25/08:30am 23.3 21.7 8.6 39 7.9 ESE 7 9 4 5 1015.1 1014.6 0.0
25/08:00am 20.5 19.7 10.9 54 5.3 ESE 6 6 3 3 1014.9 1014.4 0.0
25/07:30am 18.2 17.4 9.8 58 4.5 E 4 6 2 3 1014.7 1014.2 0.0
25/07:00am 18.4 17.8 10.3 59 4.4 E 4 6 2 3 1014.3 1013.8 0.0
25/06:30am 19.1 17.7 9.0 52 5.3 E 6 6 3 3 1014.0 1013.5 0.0
25/06:00am 19.2 18.5 9.9 55 5.0 E 4 6 2 3 1013.9 1013.4 0.0
25/05:30am 19.6 18.5 9.8 53 5.3 E 6 6 3 3 1013.8 1013.3 0.0
25/05:00am 20.0 19.0 10.4 54 5.2 E 6 6 3 3 1013.7 1013.2 0.0
25/04:30am 20.0 19.2 11.0 56 4.9 ENE 6 6 3 3 1013.6 1013.1 0.0
25/04:00am 19.2 19.9 14.5 74 2.7 W 4 6 2 3 1013.6 1013.1 0.0
25/03:30am 18.7 20.5 15.4 81 1.9 CALM 0 0 0 0 1013.6 1013.1 0.0
25/03:00am 18.8 20.5 15.1 79 2.2 CALM 0 0 0 0 1013.6 1013.1 0.0
25/02:30am 18.7 20.4 15.2 80 2.1 CALM 0 0 0 0 1013.5 1013.0 0.0
25/02:00am 18.8 20.4 14.9 78 2.3 CALM 0 0 0 0 1013.7 1013.2 0.0
25/01:30am 19.1 20.8 15.2 78 2.3 CALM 0 0 0 0 1013.9 1013.4 0.0
25/01:00am 19.5 21.2 15.2 76 2.5 CALM 0 0 0 0 1014.1 1013.6 0.0
25/12:30am 19.8 21.5 15.2 75 2.7 CALM 0 0 0 0 1014.1 1013.6 0.0
25/12:00am 19.5 20.9 14.3 72 3.0 CALM 0 0 0 0 1014.3 1013.8 0.0
 
Date/Time
CST
Temp
°C
App
Temp
°C
Dew
Point
°C
Rel
Hum
%
Delta-T
°C
Wind Press
QNH
hPa
Press
MSL
hPa
Rain since
9am
mm
Dir  Spd
km/h
Gust
km/h
Spd
kts
Gust
kts
24/11:30pm 20.6 22.1 14.7 69 3.5 CALM 0 0 0 0 1014.2 1013.7 0.0
24/11:00pm 21.2 22.3 14.6 66 3.9 W 2 4 1 2 1014.2 1013.7 0.0
24/10:30pm 23.6 24.8 15.9 62 4.7 W 4 6 2 3 1014.3 1013.8 0.0
24/10:00pm 24.0 24.7 15.5 59 5.1 W 6 9 3 5 1014.3 1013.8 0.0
24/09:30pm 24.7 25.3 15.3 56 5.7 W 6 7 3 4 1014.3 1013.8 0.0
24/09:00pm 24.4 24.4 13.6 51 6.3 WNW 6 9 3 5 1014.1 1013.6 0.0
24/08:30pm 23.3 22.9 9.7 42 7.4 E 2 6 1 3 1013.5 1013.0 0.0
24/08:00pm 24.6 24.4 9.0 37 8.5 CALM 0 0 0 0 1012.8 1012.3 0.0
24/07:30pm 25.5 25.1 8.1 33 9.4 CALM 0 0 0 0 1012.4 1012.0 0.0
24/07:00pm 27.3 25.8 6.7 27 10.9 E 4 6 2 3 1012.0 1011.6 0.0
24/06:30pm 30.7 28.2 6.6 22 13.0 ESE 9 13 5 7 1011.6 1011.1 0.0
24/06:00pm 32.2 29.1 5.7 19 14.2 ESE 11 15 6 8 1011.3 1010.8 0.0
24/05:30pm 33.2 30.1 5.7 18 14.8 E 11 17 6 9 1011.1 1010.6 0.0
24/05:00pm 33.7 30.2 5.3 17 15.2 ESE 13 26 7 14 1010.8 1010.3 0.0
24/04:30pm 33.7 29.8 5.3 17 15.2 ESE 15 20 8 11 1010.7 1010.2 0.0
24/04:00pm 33.6 29.9 4.3 16 15.4 ESE 13 26 7 14 1010.7 1010.2 0.0
24/03:30pm 33.4 28.3 4.2 16 15.4 ESE 20 30 11 16 1010.8 1010.3 0.0
24/03:00pm 33.9 28.9 3.7 15 15.8 E 19 30 10 16 1011.1 1010.6 0.0
24/02:30pm 33.4 28.3 3.3 15 15.6 ESE 19 32 10 17 1011.4 1010.9 0.0
24/02:00pm 33.3 27.7 3.2 15 15.6 ESE 22 35 12 19 1011.8 1011.4 0.0
24/01:30pm 33.1 27.4 3.0 15 15.5 E 22 32 12 17 1012.3 1011.9 0.0
24/01:00pm 32.1 26.7 1.3 14 15.3 ESE 19 30 10 16 1013.0 1012.5 0.0
24/12:30pm 32.9 27.0 1.9 14 15.6 ESE 22 35 12 19 1013.6 1013.1 0.0
24/12:00pm 32.0 26.2 2.1 15 15.1 E 22 37 12 20 1014.2 1013.7 0.0
24/11:30am 30.7 24.2 2.9 17 14.1 E 26 39 14 21 1014.7 1014.2 0.0
24/11:00am 29.8 23.7 2.9 18 13.5 ESE 24 35 13 19 1015.2 1014.7 0.0
24/10:30am 28.3 24.1 5.8 24 11.8 ESE 17 24 9 13 1015.7 1015.2 0.0
24/10:00am 27.2 23.3 5.5 25 11.2 ESE 15 19 8 10 1015.8 1015.3 0.0
24/09:30am 26.4 22.5 5.4 26 10.8 ESE 15 22 8 12 1015.8 1015.3 0.0
24/09:00am 24.2 20.6 5.1 29 9.6 SE 13 20 7 11 1015.7 1015.2 0.0
24/08:30am 24.1 21.0 5.5 30 9.5 SE 11 17 6 9 1015.4 1014.9 0.0
24/08:00am 22.7 20.1 6.0 34 8.5 SE 9 11 5 6 1015.0 1014.5 0.0
24/07:30am 20.0 17.9 6.7 42 6.7 ESE 7 9 4 5 1014.7 1014.2 0.0
24/07:00am 18.6 16.7 7.4 48 5.7 ESE 7 9 4 5 1014.2 1013.7 0.0
24/06:30am 18.1 16.3 7.2 49 5.5 E 6 6 3 3 1013.9 1013.4 0.0
24/06:00am 18.7 16.8 6.9 46 5.9 ESE 6 7 3 4 1013.6 1013.1 0.0
24/05:30am 19.2 17.4 7.0 45 6.2 ESE 6 7 3 4 1013.4 1012.9 0.0
24/05:00am 18.7 17.2 6.9 46 5.9 ESE 4 6 2 3 1013.4 1012.9 0.0
24/04:30am 18.9 17.7 8.0 49 5.6 SE 4 4 2 2 1013.2 1012.7 0.0
24/04:00am 18.5 17.0 7.0 47 5.8 SE 4 4 2 2 1013.0 1012.5 0.0
24/03:30am 18.8 18.0 6.6 45 6.1 CALM 0 4 0 2 1013.2 1012.7 0.0
24/03:00am 18.5 17.4 8.5 52 5.2 SE 4 6 2 3 1013.3 1012.8 0.0
24/02:30am 20.3 18.6 5.9 39 7.2 E 4 6 2 3 1013.3 1012.8 0.0
24/02:00am 20.9 19.0 6.8 40 7.2 E 6 7 3 4 1013.6 1013.1 0.0
24/01:30am 20.1 18.2 6.8 42 6.8 E 6 6 3 3 1013.7 1013.2 0.0
24/01:00am 20.8 18.8 6.4 39 7.3 ESE 6 6 3 3 1013.8 1013.3 0.0
24/12:30am 21.0 19.5 6.9 40 7.2 ENE 4 7 2 4 1013.9 1013.4 0.0
24/12:00am 20.7 18.9 7.3 42 6.9 NE 6 11 3 6 1014.1 1013.6 0.0
 
Date/Time
CST
Temp
°C
App
Temp
°C
Dew
Point
°C
Rel
Hum
%
Delta-T
°C
Wind Press
QNH
hPa
Press
MSL
hPa
Rain since
9am
mm
Dir  Spd
km/h
Gust
km/h
Spd
kts
Gust
kts
23/11:30pm 20.0 19.5 8.0 46 6.2 CALM 0 0 0 0 1014.0 1013.5 0.0
23/11:00pm 20.4 20.0 8.1 45 6.4 CALM 0 0 0 0 1014.0 1013.5 0.0
23/10:30pm 20.5 20.0 7.8 44 6.6 CALM 0 0 0 0 1013.8 1013.3 0.0
23/10:00pm 21.6 21.1 7.8 41 7.2 CALM 0 0 0 0 1013.8 1013.3 0.0
23/09:30pm 21.6 20.9 7.1 39 7.5 CALM 0 0 0 0 1013.7 1013.2 0.0
23/09:00pm 22.3 21.8 7.7 39 7.6 CALM 0 0 0 0 1013.5 1013.0 0.0
23/08:30pm 22.9 22.2 7.1 36 8.2 CALM 0 2 0 1 1013.1 1012.6 0.0
23/08:00pm 23.8 22.9 7.8 36 8.5 SSE 2 4 1 2 1012.8 1012.3 0.0
23/07:30pm 25.7 23.7 6.3 29 10.1 SSE 6 7 3 4 1012.3 1011.9 0.0
23/07:00pm 26.4 25.2 6.4 28 10.5 ESE 2 2 1 1 1011.9 1011.5 0.0
23/06:30pm 29.5 26.9 4.2 20 13.0 ESE 7 9 4 5 1011.5 1011.0 0.0
23/06:00pm 31.9 28.5 3.8 17 14.6 ESE 11 17 6 9 1011.4 1010.9 0.0
23/05:30pm 32.6 28.7 3.5 16 15.1 ESE 13 17 7 9 1011.1 1010.6 0.0
23/05:00pm 32.9 29.3 2.9 15 15.4 ESE 11 19 6 10 1011.0 1010.5 0.0
23/04:30pm 33.0 28.6 2.9 15 15.5 ESE 15 24 8 13 1010.9 1010.4 0.0
23/04:00pm 33.5 28.3 3.3 15 15.7 ESE 20 32 11 17 1010.8 1010.3 0.0
23/03:30pm 33.4 28.2 3.3 15 15.6 ESE 20 33 11 18 1010.9 1010.4 0.0
23/03:00pm 33.4 28.0 2.3 14 15.9 E 20 30 11 16 1011.2 1010.7 0.0
23/02:30pm 32.8 28.2 1.8 14 15.6 SE 15 32 8 17 1011.7 1011.3 0.0
23/02:00pm 33.0 28.1 2.0 14 15.7 E 17 33 9 18 1012.2 1011.8 0.0
23/01:30pm 33.1 27.6 2.1 14 15.7 ESE 20 32 11 17 1012.9 1012.4 0.0
23/01:00pm 32.7 27.3 2.7 15 15.3 SE 20 35 11 19 1013.4 1012.9 0.0
23/12:30pm 32.1 26.5 1.3 14 15.3 ESE 20 30 11 16 1013.9 1013.4 0.0
23/12:00pm 30.8 24.8 1.2 15 14.6 ESE 22 32 12 17 1014.6 1014.1 0.0
23/11:30am 30.5 25.2 1.9 16 14.2 ESE 19 24 10 13 1015.1 1014.6 0.0
23/11:00am 29.3 24.5 2.5 18 13.4 ESE 17 24 9 13 1015.6 1015.1 0.0
23/10:30am 28.2 23.4 2.4 19 12.7 E 17 24 9 13 1016.0 1015.5 0.0
23/10:00am 26.6 22.2 2.5 21 11.8 ESE 15 22 8 12 1016.2 1015.7 0.0
23/09:30am 25.8 21.6 3.7 24 11.0 SE 15 24 8 13 1016.1 1015.6 0.0
23/09:00am 24.5 19.7 2.6 24 10.6 SE 17 22 9 12 1016.1 1015.6 0.0
23/08:30am 22.6 20.1 4.6 31 8.9 ESE 7 11 4 6 1015.9 1015.4 0.0
23/08:00am 20.4 18.5 4.8 36 7.6 SE 4 6 2 3 1015.7 1015.2 0.0
23/07:30am 17.4 16.2 6.3 48 5.5 ESE 2 4 1 2 1015.5 1015.0 0.0
23/07:00am 19.0 17.0 4.4 38 7.0 ESE 4 4 2 2 1015.1 1014.6 0.0
23/06:30am 20.3 17.2 3.5 33 8.0 SE 9 13 5 7 1014.8 1014.3 0.0
23/06:00am 20.9 17.9 4.0 33 8.2 SE 9 11 5 6 1014.6 1014.1 0.0
23/05:30am 20.9 17.9 4.0 33 8.2 ESE 9 13 5 7 1014.4 1013.9 0.0
23/05:00am 20.0 17.5 4.9 37 7.4 ESE 7 11 4 6 1014.4 1013.9 0.0
23/04:30am 19.4 16.9 4.7 38 7.1 ESE 7 11 4 6 1014.5 1014.0 0.0
23/04:00am 19.5 17.2 5.9 41 6.8 E 7 11 4 6 1014.4 1013.9 0.0
23/03:30am 20.2 18.2 6.2 40 7.0 SE 6 7 3 4 1014.3 1013.8 0.0
23/03:00am 18.1 16.3 7.2 49 5.5 SE 6 9 3 5 1014.5 1014.0 0.0
23/02:30am 17.0 16.0 7.4 53 4.8 S 2 4 1 2 1014.7 1014.2 0.0
23/02:00am 17.1 16.1 7.5 53 4.8 S 2 2 1 1 1014.9 1014.4 0.0
23/01:30am 17.4 16.9 7.7 53 4.9 CALM 0 0 0 0 1015.2 1014.7 0.0
23/01:00am 17.8 16.8 7.5 51 5.2 S 2 4 1 2 1015.3 1014.8 0.0
23/12:30am 17.7 16.4 7.7 52 5.1 S 4 6 2 3 1015.3 1014.8 0.0
23/12:00am 17.6 17.0 7.6 52 5.1 CALM 0 0 0 0 1015.3 1014.8 0.0
 
Date/Time
CST
Temp
°C
App
Temp
°C
Dew
Point
°C
Rel
Hum
%
Delta-T
°C
Wind Press
QNH
hPa
Press
MSL
hPa
Rain since
9am
mm
Dir  Spd
km/h
Gust
km/h
Spd
kts
Gust
kts
22/11:30pm 17.9 17.3 7.3 50 5.4 CALM 0 0 0 0 1015.3 1014.8 0.0
22/11:00pm 18.6 18.1 8.0 50 5.5 CALM 0 0 0 0 1015.5 1015.0 0.0
22/10:30pm 19.7 19.2 7.8 46 6.1 CALM 0 2 0 1 1015.5 1015.0 0.0
22/10:00pm 19.9 18.4 7.0 43 6.6 S 4 6 2 3 1015.4 1014.9 0.0
22/09:30pm 20.8 19.7 6.7 40 7.2 S 2 4 1 2 1015.2 1014.7 0.0
22/09:00pm 21.1 19.5 6.2 38 7.5 S 4 4 2 2 1014.9 1014.4 0.0
22/08:30pm 21.7 19.9 5.6 35 8.1 S 4 4 2 2 1014.7 1014.2 0.0
22/08:00pm 23.1 21.7 5.5 32 8.9 S 2 4 1 2 1014.3 1013.8 0.0
22/07:30pm 24.9 23.3 4.6 27 10.2 S 2 4 1 2 1014.0 1013.5 0.0
22/07:00pm 26.6 24.7 5.0 25 11.1 S 4 6 2 3 1013.5 1013.0 0.0

Other Formats:

Comma delimited format used in spreadsheet applications
http://www.bom.gov.au/fwo/IDD60801/IDD60801.94125.axf

JavaScript Object Notation format (JSON) in row-major order
http://www.bom.gov.au/fwo/IDD60801/IDD60801.94125.json